Time;durP1;ratioP1;P1;durP2;ratioP2;P2;SDS_P1;SDS_P2;PMS_P1;PMS_P2;Temp;Humidity;BMP_temperature;BMP_pressure;BME280_temperature;BME280_humidity;BME280_pressure;Samples;Min_cycle;Max_cycle;Signal;HPM_P1;HPM_P2
2022/09/03 00:00:14;;;;;;;2.92;1.80;;;18.60;89.80;;;;;;5056096;28;20116;-76
2022/09/03 00:02:47;;;;;;;4.28;1.92;;;18.50;90.10;;;;;;5056193;28;20087;-76
2022/09/03 00:05:25;;;;;;;3.30;1.83;;;18.50;90.10;;;;;;5056720;28;20085;-76
2022/09/03 00:08:05;;;;;;;3.17;1.73;;;18.50;90.10;;;;;;5055914;28;20029;-75
2022/09/03 00:10:51;;;;;;;3.05;1.75;;;18.50;90.20;;;;;;5056345;28;20025;-75
2022/09/03 00:13:39;;;;;;;2.00;1.67;;;18.50;90.20;;;;;;5055937;28;20037;-75
2022/09/03 00:16:10;;;;;;;2.67;1.70;;;18.40;90.30;;;;;;5056548;28;20045;-76
2022/09/03 00:18:40;;;;;;;;;;;18.40;90.30;;;;;;5056716;28;20040;-75
2022/09/03 00:21:19;;;;;;;6.22;1.83;;;18.30;90.40;;;;;;5055159;28;20372;-77
2022/09/03 00:23:46;;;;;;;3.85;2.00;;;18.40;90.40;;;;;;5056199;28;20366;-76
2022/09/03 00:26:30;;;;;;;4.95;1.83;;;18.40;90.30;;;;;;5056199;28;20025;-75
2022/09/03 00:29:02;;;;;;;3.97;1.77;;;18.40;90.30;;;;;;5055363;28;20057;-76
2022/09/03 00:31:42;;;;;;;5.03;1.60;;;18.40;90.30;;;;;;5056083;28;20029;-75
2022/09/03 00:34:20;;;;;;;2.55;2.00;;;18.40;90.30;;;;;;5054947;28;20431;-75
2022/09/03 00:36:45;;;;;;;1.88;1.60;;;18.40;90.30;;;;;;5055878;28;20059;-76
2022/09/03 00:39:20;;;;;;;4.10;1.77;;;18.40;90.30;;;;;;5055694;28;20594;-74
2022/09/03 00:42:16;;;;;;;4.20;2.13;;;18.20;90.40;;;;;;5055220;28;20123;-75
2022/09/03 00:45:02;;;;;;;2.10;1.90;;;18.30;90.40;;;;;;5056495;28;20025;-75
2022/09/03 00:47:45;;;;;;;5.38;2.00;;;18.20;90.50;;;;;;5057666;28;20098;-74
2022/09/03 00:50:47;;;;;;;2.55;1.80;;;18.20;90.70;;;;;;5063200;28;20065;-75
2022/09/03 00:53:24;;;;;;;1.95;1.70;;;18.10;90.80;;;;;;5058336;28;20087;-75
2022/09/03 00:56:00;;;;;;;2.65;2.10;;;18.00;90.80;;;;;;5057249;28;20048;-75
2022/09/03 00:59:04;;;;;;;1.77;1.65;;;18.00;91.00;;;;;;5062438;28;20488;-75
2022/09/03 01:02:06;;;;;;;3.70;1.90;;;17.90;91.10;;;;;;5057801;28;20465;-75
2022/09/03 01:04:49;;;;;;;3.72;2.10;;;17.90;91.20;;;;;;5054947;28;20056;-75
2022/09/03 01:07:30;;;;;;;2.83;2.13;;;17.90;91.10;;;;;;5055433;28;20458;-75
2022/09/03 01:10:11;;;;;;;7.68;1.98;;;17.90;91.10;;;;;;5059018;28;20511;-75
2022/09/03 01:12:54;;;;;;;2.65;1.85;;;17.90;91.00;;;;;;5056906;28;20120;-74
2022/09/03 01:16:00;;;;;;;8.02;2.25;;;17.80;91.30;;;;;;5055107;28;20025;-74
2022/09/03 01:18:44;;;;;;;2.78;1.63;;;17.80;91.30;;;;;;5044109;28;20554;-75
2022/09/03 01:21:37;;;;;;;2.83;1.85;;;17.80;91.20;;;;;;5057625;28;20045;-75
2022/09/03 01:24:13;;;;;;;2.50;2.28;;;17.80;91.20;;;;;;5056872;28;20029;-75
2022/09/03 01:26:53;;;;;;;6.32;2.00;;;17.80;91.50;;;;;;5058290;28;20021;-75
2022/09/03 01:29:50;;;;;;;4.30;1.80;;;17.70;91.40;;;;;;5054742;28;20032;-77
2022/09/03 01:32:33;;;;;;;3.60;2.28;;;17.70;91.50;;;;;;5053995;28;20396;-76
2022/09/03 01:35:18;;;;;;;3.17;2.10;;;17.70;91.30;;;;;;5054581;28;20025;-78
2022/09/03 01:38:10;;;;;;;8.68;2.28;;;17.60;91.50;;;;;;5053958;28;20033;-75
2022/09/03 01:40:45;;;;;;;5.43;1.95;;;17.70;91.50;;;;;;5054566;28;20067;-75
2022/09/03 01:43:56;;;;;;;3.75;2.25;;;17.70;91.60;;;;;;5054299;28;20542;-76
2022/09/03 01:46:37;;;;;;;2.85;2.10;;;17.60;91.60;;;;;;5045164;28;20033;-75
2022/09/03 01:49:26;;;;;;;2.45;2.00;;;17.60;91.50;;;;;;5055057;28;20033;-75
2022/09/03 01:52:10;;;;;;;7.63;2.45;;;17.60;91.70;;;;;;5053868;28;20053;-76
2022/09/03 01:54:42;;;;;;;4.13;1.95;;;17.50;91.70;;;;;;5054580;28;20017;-76
2022/09/03 01:57:34;;;;;;;2.83;2.20;;;17.50;91.80;;;;;;5054414;28;20032;-75
2022/09/03 02:00:12;;;;;;;4.85;2.10;;;17.40;91.90;;;;;;5054061;28;20033;-76
2022/09/03 02:02:40;;;;;;;6.22;1.88;;;17.40;91.90;;;;;;5054340;28;20120;-75
2022/09/03 02:05:13;;;;;;;2.28;2.10;;;17.30;92.00;;;;;;5053573;28;20405;-76
2022/09/03 02:07:45;;;;;;;8.27;1.92;;;17.30;92.10;;;;;;5054216;28;20494;-76
2022/09/03 02:10:17;;;;;;;5.53;2.40;;;17.30;92.20;;;;;;5054644;28;20025;-76
2022/09/03 02:12:50;;;;;;;8.15;2.00;;;17.30;92.30;;;;;;5054226;28;20056;-76
2022/09/03 02:15:19;;;;;;;7.32;2.15;;;17.20;92.20;;;;;;5053560;28;20033;-76
2022/09/03 02:17:47;;;;;;;4.85;2.42;;;17.20;92.30;;;;;;5053943;28;20035;-76
2022/09/03 02:20:18;;;;;;;4.38;2.60;;;17.20;92.30;;;;;;5052987;28;20021;-76
2022/09/03 02:22:45;;;;;;;5.07;2.38;;;17.20;92.50;;;;;;5053695;28;20503;-74
2022/09/03 02:25:11;;;;;;;3.72;2.42;;;17.20;92.40;;;;;;5054024;28;20017;-75
2022/09/03 02:27:40;;;;;;;3.05;1.98;;;17.20;92.40;;;;;;5053263;28;20362;-75
2022/09/03 02:30:07;;;;;;;6.07;2.50;;;17.20;92.40;;;;;;5053705;28;20024;-76
2022/09/03 02:32:32;;;;;;;2.45;2.13;;;17.10;92.40;;;;;;5053872;28;20021;-76
2022/09/03 02:34:58;;;;;;;2.47;2.15;;;17.10;92.60;;;;;;5053029;28;20028;-75
2022/09/03 02:37:24;;;;;;;2.97;2.42;;;17.10;92.50;;;;;;5053807;28;20108;-75
2022/09/03 02:39:53;;;;;;;2.60;1.98;;;17.00;92.50;;;;;;5053551;28;20083;-74
2022/09/03 02:42:19;;;;;;;3.45;2.17;;;17.10;92.50;;;;;;5052906;28;20072;-75
2022/09/03 02:45:10;;;;;;;6.20;2.15;;;17.10;92.50;;;;;;5053640;28;20486;-77
2022/09/03 02:47:39;;;;;;;4.63;2.63;;;17.10;92.60;;;;;;5053095;28;20029;-76
2022/09/03 02:50:06;;;;;;;2.58;2.00;;;17.10;92.70;;;;;;5053542;28;20025;-76
2022/09/03 02:52:32;;;;;;;4.20;2.25;;;17.10;92.60;;;;;;5053395;28;20504;-76
2022/09/03 02:54:57;;;;;;;3.25;2.00;;;17.00;92.70;;;;;;5052846;28;20037;-76
2022/09/03 02:57:23;;;;;;;2.55;2.35;;;17.00;92.80;;;;;;5053454;28;20025;-76
2022/09/03 02:59:49;;;;;;;2.78;2.40;;;16.90;92.80;;;;;;5053389;28;20025;-76
2022/09/03 03:02:14;;;;;;;3.58;2.28;;;16.90;92.80;;;;;;5052661;28;20037;-76
2022/09/03 03:04:40;;;;;;;3.90;2.25;;;16.80;92.90;;;;;;5053516;28;20579;-77
2022/09/03 03:07:06;;;;;;;2.50;2.30;;;16.90;93.20;;;;;;5053574;28;20052;-74
2022/09/03 03:09:32;;;;;;;3.20;2.13;;;16.90;93.10;;;;;;5052818;28;20025;-75
2022/09/03 03:11:57;;;;;;;12.10;2.90;;;16.80;93.00;;;;;;5053388;28;20028;-74
2022/09/03 03:14:23;;;;;;;5.25;2.75;;;16.70;93.20;;;;;;5053110;28;20025;-75
2022/09/03 03:16:50;;;;;;;2.60;2.10;;;16.80;93.10;;;;;;5057057;28;20025;-75
2022/09/03 03:19:15;;;;;;;2.72;2.35;;;16.80;93.00;;;;;;5059348;28;20047;-75
2022/09/03 03:21:41;;;;;;;6.00;2.67;;;16.70;93.00;;;;;;5052864;28;20563;-75
2022/09/03 03:24:07;;;;;;;4.10;2.10;;;16.70;93.20;;;;;;5052598;28;20027;-75
2022/09/03 03:26:33;;;;;;;4.28;2.33;;;16.70;93.10;;;;;;5054630;28;20103;-76
2022/09/03 03:29:03;;;;;;;5.28;2.47;;;16.70;93.10;;;;;;5061723;28;20053;-75
2022/09/03 03:31:29;;;;;;;4.38;2.60;;;16.70;93.50;;;;;;5057170;28;20025;-75
2022/09/03 03:33:57;;;;;;;3.95;2.67;;;16.70;93.30;;;;;;5063426;28;20040;-75
2022/09/03 03:36:25;;;;;;;14.40;2.05;;;16.60;93.30;;;;;;5057147;28;20028;-75
2022/09/03 03:38:55;;;;;;;4.25;2.15;;;16.60;93.30;;;;;;5056454;28;20021;-75
2022/09/03 03:41:22;;;;;;;;;;;16.60;93.30;;;;;;5057265;28;20025;-75
2022/09/03 03:43:55;;;;;;;6.75;2.53;;;16.50;93.40;;;;;;5056014;28;19904;-75
2022/09/03 03:46:22;;;;;;;2.55;2.30;;;16.60;93.30;;;;;;5056928;28;20048;-76
2022/09/03 03:48:49;;;;;;;2.80;2.55;;;16.50;93.30;;;;;;5056741;28;20125;-76
2022/09/03 03:51:15;;;;;;;3.28;2.53;;;16.50;93.40;;;;;;5055930;28;20484;-74
2022/09/03 03:53:40;;;;;;;3.05;2.70;;;16.50;93.40;;;;;;5056674;28;20109;-76
2022/09/03 03:56:08;;;;;;;7.15;2.17;;;16.60;93.40;;;;;;5055384;28;20474;-75
2022/09/03 03:58:36;;;;;;;3.88;2.63;;;16.50;93.40;;;;;;5055891;28;20017;-75
2022/09/03 04:01:23;;;;;;;2.95;2.60;;;16.50;93.50;;;;;;5056299;28;20465;-75
2022/09/03 04:03:49;;;;;;;3.83;2.20;;;16.40;93.60;;;;;;5057037;28;20025;-77
2022/09/03 04:06:17;;;;;;;2.58;2.35;;;16.40;93.60;;;;;;5055624;28;20021;-76
2022/09/03 04:08:44;;;;;;;6.53;3.08;;;16.40;93.80;;;;;;5056568;28;20033;-75
2022/09/03 04:11:12;;;;;;;3.38;2.70;;;16.40;93.90;;;;;;5056326;28;20029;-75
2022/09/03 04:13:40;;;;;;;2.58;2.38;;;16.40;93.90;;;;;;5055502;28;20047;-74
2022/09/03 04:16:26;;;;;;;5.05;2.33;;;16.40;93.80;;;;;;5056395;28;20051;-76
2022/09/03 04:18:53;;;;;;;2.95;2.28;;;16.30;93.90;;;;;;5055295;28;20024;-74
2022/09/03 04:21:24;;;;;;;3.95;2.30;;;16.30;93.90;;;;;;5055924;28;20087;-76
2022/09/03 04:23:50;;;;;;;7.00;2.50;;;16.30;94.00;;;;;;5056252;28;20074;-74
2022/09/03 04:26:19;;;;;;;5.75;2.15;;;16.30;94.00;;;;;;5055505;28;20048;-75
2022/09/03 04:28:44;;;;;;;2.70;2.42;;;16.30;94.10;;;;;;5056008;28;20036;-75
2022/09/03 04:31:12;;;;;;;2.45;2.22;;;16.30;94.10;;;;;;5056188;28;20025;-76
2022/09/03 04:33:38;;;;;;;5.32;2.70;;;16.20;94.00;;;;;;5055137;28;20492;-76
2022/09/03 04:36:12;;;;;;;2.67;2.35;;;16.20;94.10;;;;;;5056323;28;20018;-76
2022/09/03 04:38:40;;;;;;;2.63;2.28;;;16.20;94.10;;;;;;5054881;28;20040;-76
2022/09/03 04:41:08;;;;;;;13.88;3.35;;;16.20;94.10;;;;;;5055123;28;20035;-76
2022/09/03 04:43:34;;;;;;;2.97;2.78;;;16.20;94.20;;;;;;5055801;28;20480;-75
2022/09/03 04:46:06;;;;;;;3.08;2.35;;;16.20;94.20;;;;;;5055665;28;20025;-76
2022/09/03 04:48:34;;;;;;;5.97;2.58;;;16.20;94.20;;;;;;5055068;28;20025;-74
2022/09/03 04:51:06;;;;;;;3.35;2.58;;;16.10;94.10;;;;;;5055501;28;20079;-75
2022/09/03 04:53:34;;;;;;;5.22;2.75;;;16.10;94.30;;;;;;5055566;28;20469;-76
2022/09/03 04:55:59;;;;;;;3.97;2.63;;;16.20;94.30;;;;;;5057936;28;20041;-76
2022/09/03 04:58:25;;;;;;;3.67;2.30;;;16.10;94.40;;;;;;5063312;28;20025;-76
2022/09/03 05:00:51;;;;;;;7.63;3.05;;;16.10;94.40;;;;;;5064456;28;20025;-76
2022/09/03 05:03:16;;;;;;;3.50;2.90;;;16.10;94.50;;;;;;5060803;28;20040;-75
2022/09/03 05:05:42;;;;;;;5.80;2.58;;;16.10;94.40;;;;;;5065153;28;20025;-75
2022/09/03 05:08:07;;;;;;;5.00;2.65;;;16.10;94.50;;;;;;5062128;28;20033;-76
2022/09/03 05:10:33;;;;;;;3.95;2.42;;;16.10;94.60;;;;;;5058994;28;20384;-76
2022/09/03 05:13:01;;;;;;;6.53;2.45;;;16.10;94.60;;;;;;5056832;28;20107;-76
2022/09/03 05:15:28;;;;;;;5.18;2.35;;;16.10;94.60;;;;;;5054512;28;20025;-74
2022/09/03 05:17:58;;;;;;;2.85;2.28;;;16.10;94.60;;;;;;5055359;28;20090;-75
2022/09/03 05:20:24;;;;;;;8.15;2.38;;;16.00;94.60;;;;;;5054665;28;20048;-74
2022/09/03 05:22:50;;;;;;;5.38;2.53;;;16.10;94.50;;;;;;5054221;28;20047;-76
2022/09/03 05:25:16;;;;;;;2.35;1.92;;;16.10;94.50;;;;;;5059033;28;20020;-76
2022/09/03 05:27:41;;;;;;;4.78;2.33;;;16.10;94.70;;;;;;5057186;28;20039;-75
2022/09/03 05:30:08;;;;;;;6.45;2.97;;;16.10;94.70;;;;;;5054189;28;20027;-74
2022/09/03 05:32:33;;;;;;;5.00;2.20;;;16.10;94.90;;;;;;5054564;28;20530;-74
2022/09/03 05:34:59;;;;;;;5.20;2.13;;;16.10;95.00;;;;;;5056518;28;20025;-76
2022/09/03 05:37:24;;;;;;;3.25;2.10;;;16.20;95.20;;;;;;5056965;28;20029;-75
2022/09/03 05:39:50;;;;;;;3.17;2.70;;;16.20;95.10;;;;;;5057662;28;20021;-76
2022/09/03 05:42:16;;;;;;;4.88;2.75;;;16.20;95.30;;;;;;5060557;28;20033;-75
2022/09/03 05:44:42;;;;;;;3.83;2.67;;;16.20;95.10;;;;;;5054115;28;20033;-75
2022/09/03 05:47:08;;;;;;;2.85;2.40;;;16.20;95.10;;;;;;5054490;28;20040;-74
2022/09/03 05:49:34;;;;;;;4.53;2.08;;;16.20;94.80;;;;;;5054390;28;20021;-75
2022/09/03 05:51:59;;;;;;;5.35;2.33;;;16.40;94.70;;;;;;5054054;28;20025;-76
2022/09/03 05:54:25;;;;;;;3.88;2.10;;;16.40;94.40;;;;;;5054393;28;20389;-75
2022/09/03 05:56:50;;;;;;;8.07;2.63;;;16.40;94.40;;;;;;5054356;28;20049;-75
2022/09/03 05:59:16;;;;;;;2.33;2.13;;;16.40;94.60;;;;;;5053281;28;20017;-76
2022/09/03 06:01:44;;;;;;;4.05;3.15;;;16.40;95.00;;;;;;5053938;28;20033;-75
2022/09/03 06:04:15;;;;;;;2.90;2.22;;;16.40;95.10;;;;;;5054365;28;20029;-76
2022/09/03 06:06:44;;;;;;;4.00;2.25;;;16.50;95.20;;;;;;5054620;28;20045;-76
2022/09/03 06:09:12;;;;;;;2.60;2.40;;;16.50;95.20;;;;;;5054246;28;20051;-76
2022/09/03 06:11:41;;;;;;;6.13;2.47;;;16.50;95.10;;;;;;5053644;28;20033;-75
2022/09/03 06:14:08;;;;;;;2.65;2.35;;;16.60;95.00;;;;;;5053903;28;20444;-76
2022/09/03 06:16:37;;;;;;;4.32;2.00;;;16.60;95.00;;;;;;5054107;28;20021;-75
2022/09/03 06:19:12;;;;;;;3.80;2.22;;;16.70;95.00;;;;;;5053215;28;20028;-77
2022/09/03 06:21:41;;;;;;;2.50;1.98;;;16.70;94.90;;;;;;5053358;28;20055;-75
2022/09/03 06:24:10;;;;;;;2.50;2.30;;;16.80;94.90;;;;;;5054037;28;20024;-77
2022/09/03 06:26:36;;;;;;;5.97;2.55;;;16.90;95.00;;;;;;5053092;28;20099;-79
2022/09/03 06:29:01;;;;;;;2.45;2.10;;;16.90;95.00;;;;;;5053394;28;20521;-75
2022/09/03 06:31:27;;;;;;;5.53;2.20;;;16.90;95.10;;;;;;5053429;28;20163;-76
2022/09/03 06:33:53;;;;;;;3.95;2.22;;;17.00;95.00;;;;;;5052733;28;20062;-76
2022/09/03 06:36:20;;;;;;;5.00;2.58;;;17.00;95.00;;;;;;5053639;28;20033;-74
2022/09/03 06:38:46;;;;;;;3.83;2.72;;;17.10;94.50;;;;;;5053489;28;20108;-74
2022/09/03 06:41:20;;;;;;;4.72;2.55;;;17.10;94.50;;;;;;5052865;28;20120;-75
2022/09/03 06:43:46;;;;;;;6.57;2.30;;;17.20;94.60;;;;;;5053538;28;20469;-76
2022/09/03 06:46:14;;;;;;;2.75;2.17;;;17.30;94.50;;;;;;5053473;28;20083;-75
2022/09/03 06:48:41;;;;;;;3.45;2.65;;;17.30;94.40;;;;;;5052687;28;20071;-76
2022/09/03 06:51:13;;;;;;;2.70;2.20;;;17.40;93.90;;;;;;5053161;28;20372;-75
2022/09/03 06:53:41;;;;;;;4.68;1.90;;;17.40;93.80;;;;;;5052576;28;20060;-76
2022/09/03 06:56:12;;;;;;;2.90;2.17;;;17.50;93.70;;;;;;5053359;28;20041;-76
2022/09/03 06:58:43;;;;;;;7.07;2.22;;;17.60;93.70;;;;;;5053315;28;20036;-76
2022/09/03 07:01:15;;;;;;;2.25;2.00;;;17.60;93.60;;;;;;5052919;28;20036;-75
2022/09/03 07:03:42;;;;;;;2.35;2.15;;;17.60;93.40;;;;;;5057384;28;20498;-76
2022/09/03 07:06:18;;;;;;;2.30;2.10;;;17.70;93.50;;;;;;5057315;28;20033;-78
2022/09/03 07:08:45;;;;;;;6.30;2.30;;;17.70;93.20;;;;;;5056646;28;20115;-78
2022/09/03 07:11:18;;;;;;;4.68;2.40;;;17.80;93.30;;;;;;5057633;28;20087;-77
2022/09/03 07:13:46;;;;;;;8.40;2.30;;;17.80;93.40;;;;;;5057399;28;20108;-75
2022/09/03 07:16:27;;;;;;;4.35;2.28;;;17.90;93.20;;;;;;5056551;28;20091;-75
2022/09/03 07:18:53;;;;;;;4.25;2.50;;;17.90;93.00;;;;;;5055903;28;20031;-77
2022/09/03 07:21:21;;;;;;;2.72;2.20;;;17.90;93.10;;;;;;5056608;28;20097;-76
2022/09/03 07:23:48;;;;;;;3.35;2.50;;;18.00;93.20;;;;;;5056756;28;20029;-77
2022/09/03 07:26:20;;;;;;;4.43;2.55;;;18.10;92.90;;;;;;5057188;28;20096;-76
2022/09/03 07:28:47;;;;;;;7.13;2.35;;;18.20;92.70;;;;;;5056665;28;20033;-78
2022/09/03 07:31:24;;;;;;;2.25;2.05;;;18.20;92.70;;;;;;5057375;28;20389;-77
2022/09/03 07:34:02;;;;;;;4.55;2.80;;;18.30;92.90;;;;;;5065054;28;20183;-75
2022/09/03 07:36:28;;;;;;;4.20;2.70;;;18.30;92.80;;;;;;5057379;28;20033;-76
2022/09/03 07:38:56;;;;;;;2.97;2.25;;;18.30;92.80;;;;;;5056942;28;20028;-76
2022/09/03 07:41:23;;;;;;;5.03;2.28;;;18.40;93.00;;;;;;5057019;28;20031;-76
2022/09/03 07:43:49;;;;;;;3.05;2.22;;;18.50;92.80;;;;;;5059794;28;20032;-77
2022/09/03 07:46:21;;;;;;;2.90;2.38;;;18.60;92.70;;;;;;5057788;28;20055;-76
2022/09/03 07:48:47;;;;;;;3.17;2.60;;;18.70;92.80;;;;;;5062667;28;20025;-77
2022/09/03 07:51:14;;;;;;;5.03;2.25;;;18.70;92.70;;;;;;5058120;28;20028;-75
2022/09/03 07:53:40;;;;;;;6.93;2.50;;;18.80;92.50;;;;;;5056706;28;20099;-76
2022/09/03 07:56:08;;;;;;;6.25;3.05;;;18.80;92.90;;;;;;5056799;28;20491;-77
2022/09/03 07:58:35;;;;;;;3.45;2.40;;;18.90;93.00;;;;;;5055472;28;20083;-77
2022/09/03 08:01:13;;;;;;;4.00;2.38;;;18.90;92.80;;;;;;5056478;28;20109;-77
2022/09/03 08:03:42;;;;;;;5.28;3.10;;;19.00;93.00;;;;;;5056571;28;20033;-76
2022/09/03 08:06:08;;;;;;;4.45;2.33;;;19.10;92.50;;;;;;5055872;28;20025;-75
2022/09/03 08:08:35;;;;;;;3.35;2.50;;;19.20;92.30;;;;;;5056019;28;20036;-77
2022/09/03 08:11:15;;;;;;;4.00;2.33;;;19.20;92.30;;;;;;5055800;28;20021;-75
2022/09/03 08:13:52;;;;;;;5.70;2.40;;;19.30;92.40;;;;;;5056187;28;20032;-76
2022/09/03 08:16:17;;;;;;;2.90;2.10;;;19.80;92.10;;;;;;5055838;28;20037;-76
2022/09/03 08:18:46;;;;;;;6.43;2.58;;;19.40;91.70;;;;;;5055483;28;20036;-76
2022/09/03 08:21:18;;;;;;;3.72;2.08;;;19.50;91.50;;;;;;5055909;28;20040;-75
2022/09/03 08:23:46;;;;;;;2.92;2.00;;;19.50;91.70;;;;;;5056135;28;20033;-76
2022/09/03 08:26:13;;;;;;;7.68;2.60;;;19.50;91.80;;;;;;5055561;28;20021;-76
2022/09/03 08:28:41;;;;;;;2.10;1.92;;;19.60;91.90;;;;;;5055779;28;20033;-74
2022/09/03 08:31:11;;;;;;;5.72;2.30;;;19.70;91.90;;;;;;5055886;28;20056;-75
2022/09/03 08:33:47;;;;;;;2.40;1.95;;;19.80;91.80;;;;;;5055131;28;20059;-76
2022/09/03 08:36:25;;;;;;;3.08;2.25;;;19.90;91.70;;;;;;5055788;28;20026;-77
2022/09/03 08:38:53;;;;;;;8.10;3.00;;;19.90;91.70;;;;;;5056595;28;20031;-76
2022/09/03 08:41:57;;;;;;;3.13;2.13;;;19.90;91.50;;;;;;5055044;28;20055;-76
2022/09/03 08:44:52;;;;;;;5.65;2.40;;;19.90;90.90;;;;;;5048784;28;20090;-77
2022/09/03 08:47:32;;;;;;;3.25;2.10;;;19.80;90.90;;;;;;5054698;28;20485;-76
2022/09/03 08:50:18;;;;;;;5.50;2.88;;;19.80;91.30;;;;;;5055580;28;20029;-76
2022/09/03 08:53:00;;;;;;;4.45;2.40;;;19.70;91.50;;;;;;5055524;28;20036;-74
2022/09/03 08:55:41;;;;;;;4.28;2.40;;;19.80;91.30;;;;;;5054885;28;20494;-75
2022/09/03 08:58:21;;;;;;;4.18;2.88;;;19.80;91.30;;;;;;5055383;28;20074;-76
2022/09/03 09:01:00;;;;;;;3.30;2.73;;;19.90;91.20;;;;;;5058203;28;20349;-75
2022/09/03 09:04:02;;;;;;;5.45;2.47;;;19.90;91.10;;;;;;5058534;28;20353;-74
2022/09/03 09:06:41;;;;;;;4.55;2.60;;;20.00;91.10;;;;;;5058163;28;20024;-76
2022/09/03 09:09:37;;;;;;;9.40;3.55;;;20.10;91.00;;;;;;5060086;28;20036;-76
2022/09/03 09:12:46;;;;;;;3.90;3.50;;;20.20;90.80;;;;;;5059788;28;20067;-76
2022/09/03 09:15:39;;;;;;;9.80;3.85;;;19.90;91.00;;;;;;5057119;28;20104;-77
2022/09/03 09:18:12;;;;;;;6.53;2.88;;;20.30;91.10;;;;;;5058622;28;20021;-76
2022/09/03 09:20:38;;;;;;;5.47;3.40;;;20.40;91.30;;;;;;5060987;28;20151;-74
2022/09/03 09:23:06;;;;;;;7.18;3.10;;;20.50;91.40;;;;;;5057139;28;20061;-76
2022/09/03 09:25:38;;;;;;;5.82;3.78;;;20.60;91.30;;;;;;5057999;28;20055;-77
2022/09/03 09:28:21;;;;;;;3.42;2.95;;;20.70;91.30;;;;;;5059377;28;20098;-77
2022/09/03 09:30:48;;;;;;;6.35;2.90;;;20.80;91.20;;;;;;5060681;28;20028;-77
2022/09/03 09:33:16;;;;;;;5.30;2.70;;;20.80;91.30;;;;;;5058002;28;20422;-76
2022/09/03 09:35:44;;;;;;;4.40;2.85;;;20.90;91.10;;;;;;5055467;28;20041;-76
2022/09/03 09:38:10;;;;;;;3.30;3.00;;;21.00;91.00;;;;;;5057310;28;20025;-75
2022/09/03 09:40:40;;;;;;;3.45;2.60;;;21.10;90.90;;;;;;5055872;28;20055;-77
2022/09/03 09:43:26;;;;;;;5.38;2.70;;;21.10;90.90;;;;;;5055235;28;20039;-76
2022/09/03 09:45:52;;;;;;;3.90;2.58;;;21.20;91.00;;;;;;5054256;28;20053;-75
2022/09/03 09:48:33;;;;;;;4.80;2.67;;;21.30;90.70;;;;;;5054790;28;20032;-75
2022/09/03 09:51:10;;;;;;;3.97;2.58;;;21.40;90.70;;;;;;5055604;28;20071;-76
2022/09/03 09:53:36;;;;;;;3.08;2.47;;;21.50;90.60;;;;;;5056289;28;20017;-77
2022/09/03 09:56:02;;;;;;;2.70;2.45;;;21.60;90.60;;;;;;5055445;28;20025;-76
2022/09/03 09:58:29;;;;;;;3.00;2.70;;;21.60;90.50;;;;;;5055857;28;20486;-76
2022/09/03 10:01:11;;;;;;;6.65;2.53;;;21.70;90.60;;;;;;5054051;28;20032;-77
2022/09/03 10:03:54;;;;;;;6.50;2.80;;;21.70;90.50;;;;;;5053686;28;20100;-76
2022/09/03 10:09:11;;;;;;;3.90;2.90;;;22.00;90.20;;;;;;5054293;28;21306;-76
2022/09/03 10:11:41;;;;;;;3.50;2.40;;;22.10;90.20;;;;;;5053653;28;20032;-76
2022/09/03 10:14:10;;;;;;;;;;;22.10;90.20;;;;;;5054413;28;20048;-75
2022/09/03 10:16:41;;;;;;;10.02;2.70;;;22.30;90.00;;;;;;5053944;28;19927;-76
2022/09/03 10:19:15;;;;;;;4.65;2.90;;;22.40;90.00;;;;;;5053201;28;20126;-75
2022/09/03 10:22:02;;;;;;;2.40;2.20;;;22.50;90.00;;;;;;5053542;28;20053;-76
2022/09/03 10:24:39;;;;;;;3.22;2.10;;;22.60;90.00;;;;;;5053466;28;20036;-77
2022/09/03 10:27:13;;;;;;;5.53;2.05;;;22.70;87.90;;;;;;5054177;28;20389;-77
2022/09/03 10:29:40;;;;;;;6.40;2.25;;;22.90;87.10;;;;;;5053493;28;20051;-76
2022/09/03 10:32:21;;;;;;;6.15;2.13;;;23.00;87.00;;;;;;5053142;28;20025;-76
2022/09/03 10:35:11;;;;;;;6.97;1.95;;;23.10;87.00;;;;;;5053709;28;20369;-77
2022/09/03 10:37:45;;;;;;;4.47;1.97;;;23.20;85.40;;;;;;5053117;28;20032;-76
2022/09/03 10:40:30;;;;;;;6.57;1.90;;;23.30;85.10;;;;;;5052815;28;20318;-77
2022/09/03 10:43:17;;;;;;;4.90;2.38;;;23.40;85.60;;;;;;5053593;28;20166;-76
2022/09/03 10:46:05;;;;;;;2.88;1.73;;;23.40;84.60;;;;;;5052783;28;20096;-76
2022/09/03 10:49:08;;;;;;;2.42;1.90;;;23.50;85.10;;;;;;5053658;28;20389;-77
2022/09/03 10:51:49;;;;;;;6.40;1.88;;;23.50;85.20;;;;;;5053496;28;20031;-76
2022/09/03 10:54:42;;;;;;;3.03;1.65;;;23.60;84.80;;;;;;5053387;28;20035;-77
2022/09/03 10:57:49;;;;;;;3.25;1.75;;;23.60;84.70;;;;;;5051038;28;20036;-77
2022/09/03 11:00:17;;;;;;;3.95;1.90;;;23.80;84.90;;;;;;5052769;28;20029;-77
2022/09/03 11:02:57;;;;;;;4.13;1.90;;;23.80;84.30;;;;;;5053388;28;20043;-77
2022/09/03 11:05:28;;;;;;;5.10;1.90;;;23.80;83.90;;;;;;5053534;28;20072;-75
2022/09/03 11:08:05;;;;;;;1.75;1.50;;;23.90;83.60;;;;;;5052852;28;20033;-75
2022/09/03 11:10:34;;;;;;;8.10;2.03;;;24.00;82.90;;;;;;5053323;28;20494;-76
2022/09/03 11:13:16;;;;;;;2.33;1.70;;;24.10;83.40;;;;;;5053373;28;20104;-76
2022/09/03 11:15:44;;;;;;;2.67;1.70;;;24.10;84.00;;;;;;5052424;28;20025;-75
2022/09/03 11:18:24;;;;;;;2.72;2.08;;;24.10;82.90;;;;;;5053286;28;20047;-77
2022/09/03 11:20:54;;;;;;;2.97;1.95;;;24.20;83.30;;;;;;5052437;28;20044;-77
2022/09/03 11:23:22;;;;;;;2.00;1.77;;;24.30;83.70;;;;;;5053289;28;20037;-77
2022/09/03 11:25:55;;;;;;;4.65;1.55;;;24.30;83.90;;;;;;5053024;28;20028;-78
2022/09/03 11:28:44;;;;;;;5.53;1.80;;;24.40;83.30;;;;;;5052483;28;20465;-76
2022/09/03 11:31:46;;;;;;;4.15;1.75;;;24.40;82.30;;;;;;5053287;28;20021;-77
2022/09/03 11:34:14;;;;;;;4.28;1.70;;;24.60;83.10;;;;;;5053008;28;20098;-77
2022/09/03 11:36:41;;;;;;;3.40;1.52;;;24.60;81.90;;;;;;5052552;28;20059;-76
2022/09/03 11:39:17;;;;;;;4.13;2.03;;;24.70;81.20;;;;;;5053006;28;20036;-77
2022/09/03 11:42:23;;;;;;;2.35;1.75;;;24.70;81.10;;;;;;5052999;28;20122;-77
2022/09/03 11:44:53;;;;;;;1.70;1.60;;;24.70;81.20;;;;;;5031090;28;20033;-77
2022/09/03 11:47:18;;;;;;;2.80;2.17;;;24.90;81.20;;;;;;5031770;28;20030;-77
2022/09/03 11:49:51;;;;;;;5.43;2.33;;;25.00;81.30;;;;;;5053997;28;20033;-77
2022/09/03 11:52:30;;;;;;;4.15;2.80;;;24.90;81.10;;;;;;5057740;28;20024;-77
2022/09/03 11:54:55;;;;;;;3.10;1.90;;;25.00;80.80;;;;;;5056556;28;20033;-77
2022/09/03 11:57:32;;;;;;;2.33;1.90;;;25.00;80.40;;;;;;5055752;28;20028;-77
2022/09/03 12:00:23;;;;;;;3.03;2.00;;;25.10;80.30;;;;;;5061742;28;20033;-78
2022/09/03 12:02:56;;;;;;;4.60;2.13;;;25.20;80.40;;;;;;5056970;28;20361;-77
2022/09/03 12:05:40;;;;;;;2.38;2.15;;;25.20;79.80;;;;;;5066457;28;20071;-78
2022/09/03 12:08:12;;;;;;;7.43;2.05;;;25.30;80.20;;;;;;5056562;28;20062;-77
2022/09/03 12:11:03;;;;;;;7.55;2.00;;;25.20;80.20;;;;;;5055694;28;20047;-77
2022/09/03 12:13:47;;;;;;;2.65;2.10;;;25.30;80.00;;;;;;5055174;28;20218;-77
2022/09/03 12:16:36;;;;;;;2.70;2.50;;;25.40;79.50;;;;;;5055978;28;20021;-76
2022/09/03 12:19:21;;;;;;;3.28;1.63;;;25.60;79.50;;;;;;5052368;28;20033;-76
2022/09/03 12:21:48;;;;;;;2.75;2.20;;;25.70;79.30;;;;;;5055688;28;20497;-77
2022/09/03 12:24:14;;;;;;;5.03;2.70;;;25.70;79.10;;;;;;5055327;28;20056;-75
2022/09/03 12:26:41;;;;;;;5.43;2.20;;;25.90;79.30;;;;;;5056030;28;20056;-76
2022/09/03 12:29:20;;;;;;;3.83;1.80;;;25.80;78.90;;;;;;5056078;28;20032;-76
2022/09/03 12:31:49;;;;;;;3.92;2.20;;;25.90;79.50;;;;;;5055206;28;20025;-76
2022/09/03 12:34:16;;;;;;;2.45;1.90;;;26.00;79.10;;;;;;5055867;28;20024;-76
2022/09/03 12:36:51;;;;;;;7.57;2.25;;;26.10;78.90;;;;;;5055747;28;20028;-76
2022/09/03 12:39:20;;;;;;;3.47;2.00;;;26.10;78.20;;;;;;5055192;28;20113;-77
2022/09/03 12:42:06;;;;;;;3.03;2.60;;;26.20;78.80;;;;;;5055480;28;20476;-75
2022/09/03 12:44:41;;;;;;;3.58;2.13;;;26.20;78.10;;;;;;5055698;28;20415;-76
2022/09/03 12:47:12;;;;;;;5.53;2.25;;;26.30;78.20;;;;;;5055404;28;20032;-76
2022/09/03 12:49:44;;;;;;;5.72;2.67;;;26.40;77.80;;;;;;5055670;28;20020;-76
2022/09/03 12:52:29;;;;;;;12.90;2.55;;;26.50;77.50;;;;;;5055372;28;20029;-76
2022/09/03 12:55:07;;;;;;;4.65;2.42;;;26.60;77.30;;;;;;5055627;28;20066;-76
2022/09/03 12:57:44;;;;;;;6.25;2.05;;;26.70;77.40;;;;;;5055512;28;20419;-75
2022/09/03 13:00:14;;;;;;;3.67;2.20;;;26.60;77.50;;;;;;5053540;28;20362;-76
2022/09/03 13:03:02;;;;;;;3.45;1.90;;;26.80;77.20;;;;;;5055026;28;20033;-77
2022/09/03 13:05:43;;;;;;;2.45;1.92;;;26.80;76.60;;;;;;5055271;28;20033;-76
2022/09/03 13:08:13;;;;;;;3.15;2.00;;;26.90;76.10;;;;;;5054254;28;20484;-77
2022/09/03 13:10:41;;;;;;;3.58;2.10;;;26.90;76.00;;;;;;5055162;28;20021;-76
2022/09/03 13:13:18;;;;;;;3.25;2.30;;;26.90;75.50;;;;;;5055124;28;20036;-76
2022/09/03 13:16:01;;;;;;;3.03;2.00;;;27.10;75.60;;;;;;5054751;28;20049;-77
2022/09/03 13:18:46;;;;;;;3.70;1.73;;;27.20;75.00;;;;;;5055168;28;20032;-76
2022/09/03 13:21:11;;;;;;;6.47;2.20;;;27.30;74.70;;;;;;5054157;28;20037;-77
2022/09/03 13:24:14;;;;;;;2.15;1.85;;;27.30;74.40;;;;;;5055082;28;20037;-76